createdAt,value
2017-03-24T00:00:51.879Z,22.9
2017-03-24T00:02:01.549Z,22.85
2017-03-24T00:03:10.630Z,22.91
2017-03-24T00:04:20.024Z,22.88
2017-03-24T00:05:29.381Z,22.81
2017-03-24T00:06:38.712Z,22.73
2017-03-24T00:07:47.472Z,22.76
2017-03-24T00:08:56.860Z,22.87
2017-03-24T00:10:06.556Z,22.78
2017-03-24T00:11:15.336Z,22.78
2017-03-24T00:12:25.297Z,22.72
2017-03-24T00:13:34.095Z,22.83
2017-03-24T00:14:43.177Z,22.75
2017-03-24T00:15:52.569Z,22.8
2017-03-24T00:17:01.608Z,22.8
2017-03-24T00:18:10.672Z,22.76
2017-03-24T00:19:20.370Z,22.76
2017-03-24T00:20:29.449Z,22.69
2017-03-24T00:21:38.225Z,22.83
2017-03-24T00:22:47.615Z,22.7
2017-03-24T00:23:57.316Z,22.68
2017-03-24T00:25:06.711Z,22.73
2017-03-24T00:26:15.493Z,22.69
2017-03-24T00:27:24.573Z,22.65
2017-03-24T00:28:34.277Z,22.7
2017-03-24T00:29:43.063Z,22.73
2017-03-24T00:30:51.847Z,22.75
2017-03-24T00:32:00.919Z,22.73
2017-03-24T00:33:10.044Z,22.7
2017-03-24T00:34:19.482Z,22.69
2017-03-24T00:35:28.883Z,22.8
2017-03-24T00:36:37.977Z,22.69
2017-03-24T00:37:47.327Z,22.7
2017-03-24T00:38:57.003Z,22.73
2017-03-24T00:40:06.085Z,22.7
2017-03-24T00:41:14.821Z,22.7
2017-03-24T00:42:23.882Z,22.7
2017-03-24T00:43:32.940Z,22.65
2017-03-24T00:44:41.994Z,22.7
2017-03-24T00:45:51.084Z,22.72
2017-03-24T00:47:00.123Z,22.66
2017-03-24T00:48:08.879Z,22.66
2017-03-24T00:49:17.932Z,22.59
2017-03-24T00:50:27.307Z,22.65
2017-03-24T00:51:36.694Z,22.63
2017-03-24T00:52:46.078Z,22.65
2017-03-24T00:53:56.099Z,22.66
2017-03-24T00:55:05.183Z,22.65
2017-03-24T00:56:14.272Z,22.65
2017-03-24T00:57:23.620Z,22.63
2017-03-24T00:58:32.983Z,22.59
2017-03-24T00:59:42.376Z,22.57
2017-03-24T01:00:51.118Z,22.6
2017-03-24T01:02:00.791Z,22.54
2017-03-24T01:03:09.839Z,22.57
2017-03-24T01:04:19.825Z,22.55
2017-03-24T01:05:29.561Z,22.53
2017-03-24T01:06:38.631Z,22.48
2017-03-24T01:07:47.694Z,22.57
2017-03-24T01:08:57.666Z,22.54
2017-03-24T01:10:07.351Z,22.55
2017-03-24T01:11:16.088Z,22.51
2017-03-24T01:12:25.511Z,22.54
2017-03-24T01:13:34.875Z,22.51
2017-03-24T01:14:44.564Z,22.53
2017-03-24T01:15:53.952Z,22.51
2017-03-24T01:17:03.052Z,22.51
2017-03-24T01:18:12.132Z,22.5
2017-03-24T01:19:21.793Z,22.51
2017-03-24T01:20:30.854Z,22.45
2017-03-24T01:21:40.136Z,22.48
2017-03-24T01:22:49.230Z,22.43
2017-03-24T01:23:58.003Z,22.45
2017-03-24T01:25:07.660Z,22.47
2017-03-24T01:26:16.725Z,22.43
2017-03-24T01:27:25.501Z,22.45
2017-03-24T01:28:34.586Z,22.43
2017-03-24T01:29:43.970Z,22.39
2017-03-24T01:30:52.751Z,22.44
2017-03-24T01:32:01.849Z,22.38
2017-03-24T01:33:11.237Z,22.48
2017-03-24T01:34:20.938Z,22.41
2017-03-24T01:35:30.327Z,22.45
2017-03-24T01:36:39.109Z,22.38
2017-03-24T01:37:47.890Z,22.45
2017-03-24T01:38:58.200Z,22.39
2017-03-24T01:40:07.286Z,22.38
2017-03-24T01:41:17.289Z,22.44
2017-03-24T01:42:26.990Z,22.33
2017-03-24T01:43:36.688Z,22.36
2017-03-24T01:44:45.476Z,22.38
2017-03-24T01:45:54.564Z,22.38
2017-03-24T01:47:03.671Z,22.35
2017-03-24T01:48:12.395Z,22.38
2017-03-24T01:49:22.066Z,22.36
2017-03-24T01:50:31.764Z,22.35
2017-03-24T01:51:40.893Z,22.45
2017-03-24T01:52:50.450Z,22.41
2017-03-24T01:54:00.118Z,22.41
2017-03-24T01:55:09.511Z,22.44
2017-03-24T01:56:18.558Z,22.38
2017-03-24T01:57:28.227Z,22.41
2017-03-24T01:58:37.617Z,22.3
2017-03-24T01:59:47.014Z,22.28
2017-03-24T02:00:55.799Z,22.29
2017-03-24T02:02:04.884Z,22.3
2017-03-24T02:03:14.283Z,22.29
2017-03-24T02:04:23.884Z,22.29
2017-03-24T02:05:32.964Z,22.33
2017-03-24T02:06:42.047Z,22.26
2017-03-24T02:07:51.439Z,22.3
2017-03-24T02:09:01.429Z,22.33
2017-03-24T02:10:11.441Z,22.26
2017-03-24T02:11:20.521Z,22.26
2017-03-24T02:12:29.901Z,22.29
2017-03-24T02:13:38.980Z,22.33
2017-03-24T02:14:48.637Z,22.23
2017-03-24T02:15:57.689Z,22.29
2017-03-24T02:17:06.735Z,22.29
2017-03-24T02:18:16.055Z,22.22
2017-03-24T02:19:25.428Z,22.2
2017-03-24T02:20:34.819Z,22.2
2017-03-24T02:21:43.594Z,22.3
2017-03-24T02:22:52.992Z,22.26
2017-03-24T02:24:01.795Z,22.25
2017-03-24T02:25:11.758Z,22.28
2017-03-24T02:26:20.508Z,22.3
2017-03-24T02:27:30.511Z,22.28
2017-03-24T02:28:39.897Z,22.25
2017-03-24T02:29:49.586Z,22.22
2017-03-24T02:30:58.631Z,22.26
2017-03-24T02:32:07.693Z,22.28
2017-03-24T02:33:16.764Z,22.25
2017-03-24T02:34:25.826Z,22.25
2017-03-24T02:35:34.795Z,22.25
2017-03-24T02:36:43.572Z,22.2
2017-03-24T02:37:52.974Z,22.2
2017-03-24T02:39:02.680Z,22.25
2017-03-24T02:40:12.393Z,22.15
2017-03-24T02:41:21.469Z,22.22
2017-03-24T02:42:30.545Z,22.15
2017-03-24T02:43:39.939Z,22.18
2017-03-24T02:44:49.903Z,22.25
2017-03-24T02:45:59.262Z,22.2
2017-03-24T02:47:08.039Z,22.18
2017-03-24T02:48:18.041Z,22.25
2017-03-24T02:49:27.695Z,22.25
2017-03-24T02:50:37.082Z,22.17
2017-03-24T02:51:45.817Z,22.2
2017-03-24T02:52:54.878Z,22.25
2017-03-24T02:54:04.263Z,22.23
2017-03-24T02:55:13.762Z,22.14
2017-03-24T02:56:22.842Z,22.22
2017-03-24T02:57:32.532Z,22.2
2017-03-24T02:58:41.620Z,22.23
2017-03-24T02:59:51.621Z,22.2
2017-03-24T03:01:00.986Z,22.23
2017-03-24T03:02:09.733Z,22.13
2017-03-24T03:03:18.830Z,22.14
2017-03-24T03:04:28.178Z,22.17
2017-03-24T03:05:37.747Z,22.17
2017-03-24T03:06:46.823Z,22.18
2017-03-24T03:07:55.910Z,22.1
2017-03-24T03:09:05.004Z,22.18
2017-03-24T03:10:14.102Z,22.15
2017-03-24T03:11:23.180Z,22.18
2017-03-24T03:12:32.568Z,22.15
2017-03-24T03:13:42.267Z,22.17
2017-03-24T03:14:51.344Z,22.13
2017-03-24T03:16:00.422Z,22.15
2017-03-24T03:17:09.156Z,22.08
2017-03-24T03:18:18.483Z,22.13
2017-03-24T03:19:28.122Z,22.15
2017-03-24T03:20:37.445Z,22.08
2017-03-24T03:21:46.187Z,22.13
2017-03-24T03:22:54.981Z,22.11
2017-03-24T03:24:04.878Z,22.07
2017-03-24T03:25:14.580Z,22.11
2017-03-24T03:26:23.365Z,22.1
2017-03-24T03:27:32.403Z,22.08
2017-03-24T03:28:41.522Z,22.06
2017-03-24T03:29:50.612Z,22.08
2017-03-24T03:30:59.748Z,22.15
2017-03-24T03:32:08.835Z,22.06
2017-03-24T03:33:18.225Z,22.13
2017-03-24T03:34:27.922Z,22.1
2017-03-24T03:35:37.514Z,22.07
2017-03-24T03:36:46.594Z,22.11
2017-03-24T03:37:56.247Z,22.04
2017-03-24T03:39:06.220Z,21.99
2017-03-24T03:40:15.611Z,22.02
2017-03-24T03:41:24.389Z,22.04
2017-03-24T03:42:33.784Z,22.08
2017-03-24T03:43:43.178Z,22.07
2017-03-24T03:44:52.895Z,22.1
2017-03-24T03:46:01.674Z,21.98
2017-03-24T03:47:11.058Z,21.98
2017-03-24T03:48:19.829Z,21.99
2017-03-24T03:49:28.912Z,21.98
2017-03-24T03:50:37.701Z,22.04
2017-03-24T03:51:46.424Z,22.02
2017-03-24T03:52:55.466Z,21.99
2017-03-24T03:54:04.816Z,21.95
2017-03-24T03:55:14.495Z,22
2017-03-24T03:56:23.861Z,21.96
2017-03-24T03:57:32.926Z,21.99
2017-03-24T03:58:42.913Z,22.07
2017-03-24T03:59:52.288Z,22.02
2017-03-24T04:01:01.618Z,21.98
2017-03-24T04:02:10.681Z,22.02
2017-03-24T04:03:20.292Z,21.99
2017-03-24T04:04:29.938Z,22
2017-03-24T04:05:38.968Z,22.02
2017-03-24T04:06:47.998Z,22.02
2017-03-24T04:07:57.667Z,22
2017-03-24T04:09:07.042Z,22.02
2017-03-24T04:10:16.714Z,21.95
2017-03-24T04:11:25.475Z,22
2017-03-24T04:12:35.002Z,22
2017-03-24T04:13:44.343Z,22.04
2017-03-24T04:14:53.720Z,21.95
2017-03-24T04:16:03.053Z,21.96
2017-03-24T04:17:12.546Z,21.95
2017-03-24T04:18:22.533Z,21.98
2017-03-24T04:19:32.173Z,21.98
2017-03-24T04:20:41.212Z,21.98
2017-03-24T04:21:49.974Z,22
2017-03-24T04:22:58.743Z,21.92
2017-03-24T04:24:08.677Z,21.99
2017-03-24T04:25:18.328Z,21.93
2017-03-24T04:26:27.394Z,21.91
2017-03-24T04:27:36.461Z,21.88
2017-03-24T04:28:46.445Z,21.93
2017-03-24T04:29:56.327Z,21.92
2017-03-24T04:31:05.713Z,21.96
2017-03-24T04:32:15.121Z,21.89
2017-03-24T04:33:24.189Z,21.92
2017-03-24T04:34:33.857Z,21.92
2017-03-24T04:35:42.921Z,21.91
2017-03-24T04:36:51.978Z,21.91
2017-03-24T04:38:01.041Z,21.93
2017-03-24T04:39:10.767Z,21.92
2017-03-24T04:40:20.100Z,21.93
2017-03-24T04:41:28.793Z,21.89
2017-03-24T04:42:38.437Z,21.91
2017-03-24T04:43:48.378Z,21.88
2017-03-24T04:44:58.022Z,21.89
2017-03-24T04:46:07.085Z,21.91
2017-03-24T04:47:16.150Z,21.89
2017-03-24T04:48:25.845Z,21.89
2017-03-24T04:49:35.218Z,21.83
2017-03-24T04:50:44.280Z,21.83
2017-03-24T04:51:53.342Z,21.93
2017-03-24T04:53:02.614Z,21.88
2017-03-24T04:54:12.587Z,21.88
2017-03-24T04:55:22.262Z,21.88
2017-03-24T04:56:31.641Z,21.89
2017-03-24T04:57:41.326Z,21.85
2017-03-24T04:58:51.262Z,21.85
2017-03-24T05:00:00.902Z,21.93
2017-03-24T05:01:09.667Z,21.89
2017-03-24T05:02:18.423Z,21.88
2017-03-24T05:03:27.486Z,21.89
2017-03-24T05:04:36.819Z,21.85
2017-03-24T05:05:45.754Z,21.91
2017-03-24T05:06:54.485Z,21.85
2017-03-24T05:08:03.839Z,21.88
2017-03-24T05:09:13.222Z,21.88
2017-03-24T05:10:22.902Z,21.91
2017-03-24T05:11:31.964Z,21.89
2017-03-24T05:12:41.348Z,21.88
2017-03-24T05:13:51.026Z,21.89
2017-03-24T05:15:01.021Z,21.82
2017-03-24T05:16:10.087Z,21.88
2017-03-24T05:17:19.754Z,21.91
2017-03-24T05:18:29.428Z,21.89
2017-03-24T05:19:39.105Z,21.89
2017-03-24T05:20:48.173Z,21.89
2017-03-24T05:21:57.244Z,21.96
2017-03-24T05:23:06.618Z,21.89
2017-03-24T05:24:16.605Z,21.92
2017-03-24T05:25:26.277Z,21.99
2017-03-24T05:26:35.645Z,21.98
2017-03-24T05:27:45.333Z,21.99
2017-03-24T05:28:54.678Z,21.95
2017-03-24T05:30:04.362Z,21.99
2017-03-24T05:31:13.682Z,22
2017-03-24T05:32:22.715Z,22.02
2017-03-24T05:33:32.058Z,22
2017-03-24T05:34:41.441Z,22.04
2017-03-24T05:35:50.207Z,21.96
2017-03-24T05:36:59.272Z,21.95
2017-03-24T05:38:08.338Z,22.02
2017-03-24T05:39:17.999Z,22.02
2017-03-24T05:40:27.347Z,22.11
2017-03-24T05:41:36.062Z,22.07
2017-03-24T05:42:45.707Z,22.07
2017-03-24T05:43:54.770Z,22.04
2017-03-24T05:45:04.416Z,22.14
2017-03-24T05:46:13.519Z,22.08
2017-03-24T05:47:22.826Z,22.13
2017-03-24T05:48:32.473Z,22.14
2017-03-24T05:49:41.850Z,22.08
2017-03-24T05:50:50.925Z,22.14
2017-03-24T05:51:59.995Z,22.14
2017-03-24T05:53:08.809Z,22.17
2017-03-24T05:54:18.794Z,22.14
2017-03-24T05:55:28.170Z,22.25
2017-03-24T05:56:38.461Z,22.15
2017-03-24T05:57:47.489Z,22.18
2017-03-24T05:58:57.441Z,22.18
2017-03-24T06:00:07.119Z,22.25
2017-03-24T06:01:15.881Z,22.29
2017-03-24T06:02:24.954Z,22.28
2017-03-24T06:03:34.331Z,22.29
2017-03-24T06:04:43.717Z,22.26
2017-03-24T06:05:53.086Z,22.32
2017-03-24T06:07:02.134Z,22.3
2017-03-24T06:08:10.895Z,22.38
2017-03-24T06:09:19.939Z,22.39
2017-03-24T06:10:29.592Z,22.25
2017-03-24T06:11:38.357Z,22.38
2017-03-24T06:12:47.433Z,22.35
2017-03-24T06:13:57.117Z,22.36
2017-03-24T06:15:06.496Z,22.48
2017-03-24T06:16:15.469Z,22.47
2017-03-24T06:17:24.239Z,22.41
2017-03-24T06:18:33.304Z,22.44
2017-03-24T06:19:42.981Z,22.47
2017-03-24T06:20:51.753Z,22.48
2017-03-24T06:22:00.812Z,22.54
2017-03-24T06:23:10.194Z,22.55
2017-03-24T06:24:19.875Z,22.6
2017-03-24T06:25:29.253Z,22.53
2017-03-24T06:26:38.618Z,22.59
2017-03-24T06:27:48.302Z,22.62
2017-03-24T06:28:57.385Z,22.65
2017-03-24T06:30:07.076Z,22.68
2017-03-24T06:31:16.158Z,22.63
2017-03-24T06:32:24.953Z,22.73
2017-03-24T06:33:34.028Z,22.73
2017-03-24T06:34:43.666Z,22.75
2017-03-24T06:35:52.405Z,22.6
2017-03-24T06:37:01.471Z,22.72
2017-03-24T06:38:10.804Z,22.75
2017-03-24T06:39:20.464Z,22.7
2017-03-24T06:40:29.807Z,22.75
2017-03-24T06:41:38.505Z,22.7
2017-03-24T06:42:47.547Z,22.75
2017-03-24T06:43:57.528Z,22.84
2017-03-24T06:45:06.897Z,22.78
2017-03-24T06:46:16.117Z,22.85
2017-03-24T06:47:25.186Z,22.87
2017-03-24T06:48:33.945Z,22.91
2017-03-24T06:49:43.021Z,22.93
2017-03-24T06:50:53.009Z,22.99
2017-03-24T06:52:01.769Z,22.93
2017-03-24T06:53:10.844Z,22.96
2017-03-24T06:54:20.536Z,23.03
2017-03-24T06:55:29.917Z,23.02
2017-03-24T06:56:38.976Z,23.1
2017-03-24T06:57:47.741Z,23.17
2017-03-24T06:58:57.723Z,23.18
2017-03-24T07:00:07.097Z,23.24
2017-03-24T07:01:16.777Z,23.21
2017-03-24T07:02:26.147Z,23.24
2017-03-24T07:03:35.527Z,23.34
2017-03-24T07:04:44.922Z,23.39
2017-03-24T07:05:54.599Z,23.43
2017-03-24T07:07:03.669Z,23.43
2017-03-24T07:08:13.052Z,23.5
2017-03-24T07:09:23.079Z,23.58
2017-03-24T07:10:32.162Z,23.55
2017-03-24T07:11:41.436Z,23.66
2017-03-24T07:12:50.506Z,23.71
2017-03-24T07:13:59.594Z,23.81
2017-03-24T07:15:08.959Z,23.83
2017-03-24T07:16:18.023Z,23.8
2017-03-24T07:17:27.398Z,23.87
2017-03-24T07:18:36.767Z,23.93
2017-03-24T07:19:45.838Z,23.99
2017-03-24T07:20:54.903Z,23.99
2017-03-24T07:22:03.619Z,23.95
2017-03-24T07:23:12.570Z,23.92
2017-03-24T07:24:22.557Z,23.93
2017-03-24T07:25:31.322Z,23.91
2017-03-24T07:26:40.090Z,24.02
2017-03-24T07:27:49.475Z,24.01
2017-03-24T07:28:58.548Z,24.03
2017-03-24T07:30:07.606Z,23.98
2017-03-24T07:31:16.651Z,23.99
2017-03-24T07:32:25.414Z,23.99
2017-03-24T07:33:34.987Z,24.03
2017-03-24T07:34:44.052Z,24.02
2017-03-24T07:35:53.626Z,23.99
2017-03-24T07:37:03.000Z,24.03
2017-03-24T07:38:12.637Z,23.99
2017-03-24T07:39:21.997Z,24.03
2017-03-24T07:40:30.756Z,23.99
2017-03-24T07:41:39.832Z,24.01
2017-03-24T07:42:49.216Z,24.01
2017-03-24T07:43:59.095Z,23.96
2017-03-24T07:45:09.076Z,23.98
2017-03-24T07:46:17.839Z,24.01
2017-03-24T07:47:26.911Z,23.96
2017-03-24T07:48:36.287Z,23.99
2017-03-24T07:49:46.281Z,23.92
2017-03-24T07:50:55.614Z,23.98
2017-03-24T07:52:04.655Z,23.99
2017-03-24T07:53:14.339Z,23.98
2017-03-24T07:54:23.714Z,24.02
2017-03-24T07:55:32.792Z,24.1
2017-03-24T07:56:41.562Z,24.16
2017-03-24T07:57:50.329Z,24.17
2017-03-24T07:58:59.088Z,24.28
2017-03-24T08:00:07.850Z,24.32
2017-03-24T08:01:17.177Z,24.35
2017-03-24T08:02:25.944Z,24.42
2017-03-24T08:03:34.971Z,24.42
2017-03-24T08:04:43.709Z,24.5
2017-03-24T08:05:52.478Z,24.53
2017-03-24T08:07:01.196Z,24.54
2017-03-24T08:08:09.943Z,24.6
2017-03-24T08:09:19.011Z,24.55
2017-03-24T08:10:27.781Z,24.63
2017-03-24T08:11:36.504Z,24.69
2017-03-24T08:12:45.242Z,24.76
2017-03-24T08:13:54.309Z,24.69
2017-03-24T08:15:03.372Z,24.68
2017-03-24T08:16:12.139Z,24.69
2017-03-24T08:17:20.920Z,24.7
2017-03-24T08:18:29.677Z,24.7
2017-03-24T08:19:38.748Z,24.66
2017-03-24T08:20:47.516Z,24.65
2017-03-24T08:21:56.239Z,24.65
2017-03-24T08:23:04.935Z,24.61
2017-03-24T08:24:13.680Z,24.76
2017-03-24T08:25:22.410Z,24.66
2017-03-24T08:26:31.647Z,24.69
2017-03-24T08:27:40.704Z,24.7
2017-03-24T08:28:49.462Z,24.69
2017-03-24T08:29:58.230Z,24.74
2017-03-24T08:31:07.301Z,24.8
2017-03-24T08:32:16.330Z,24.78
2017-03-24T08:33:25.058Z,24.8
2017-03-24T08:34:33.864Z,24.78
2017-03-24T08:35:42.628Z,24.89
2017-03-24T08:36:51.550Z,24.91
2017-03-24T08:38:00.313Z,24.93
2017-03-24T08:39:09.053Z,24.91
2017-03-24T08:40:18.086Z,25.07
2017-03-24T08:41:27.157Z,25.04
2017-03-24T08:42:35.885Z,24.99
2017-03-24T08:43:44.622Z,25.08
2017-03-24T08:44:53.344Z,25.16
2017-03-24T08:46:02.389Z,25.22
2017-03-24T08:47:11.410Z,25.26
2017-03-24T08:48:20.341Z,25.23
2017-03-24T08:49:29.106Z,25.29
2017-03-24T08:50:38.176Z,25.35
2017-03-24T08:51:47.545Z,25.43
2017-03-24T08:52:56.309Z,25.43
2017-03-24T08:54:05.533Z,25.54
2017-03-24T08:55:14.260Z,25.59
2017-03-24T08:56:23.325Z,25.59
2017-03-24T08:57:32.081Z,25.65
2017-03-24T08:58:40.844Z,25.63
2017-03-24T08:59:49.606Z,25.73
2017-03-24T09:00:58.674Z,25.78
2017-03-24T09:02:07.434Z,25.77
2017-03-24T09:03:16.195Z,25.85
2017-03-24T09:04:25.150Z,25.77
2017-03-24T09:05:33.910Z,25.9
2017-03-24T09:06:42.970Z,25.98
2017-03-24T09:07:51.696Z,25.99
2017-03-24T09:09:00.395Z,26.05
2017-03-24T09:10:09.431Z,26.22
2017-03-24T09:11:18.196Z,26.31
2017-03-24T09:12:27.305Z,26.44
2017-03-24T09:13:36.063Z,26.6
2017-03-24T09:14:45.332Z,26.71
2017-03-24T09:15:54.140Z,26.9
2017-03-24T09:17:02.911Z,27.15
2017-03-24T09:18:11.882Z,27.47
2017-03-24T09:19:20.639Z,27.89
2017-03-24T09:20:29.405Z,28.38
2017-03-24T09:21:38.465Z,28.86
2017-03-24T09:22:47.217Z,29.32
2017-03-24T09:23:55.938Z,29.72
2017-03-24T09:25:04.976Z,30.15
2017-03-24T09:26:13.950Z,30.69
2017-03-24T09:27:22.710Z,31
2017-03-24T09:28:31.475Z,31.42
2017-03-24T09:29:40.237Z,31.77
2017-03-24T09:30:48.993Z,32.18
2017-03-24T09:31:57.759Z,32.46
2017-03-24T09:33:06.829Z,32.68
2017-03-24T09:34:16.101Z,33.05
2017-03-24T09:35:24.859Z,33.19
2017-03-24T09:36:33.616Z,33.34
2017-03-24T09:37:42.381Z,33.46
2017-03-24T09:38:51.190Z,33.45
2017-03-24T09:39:59.961Z,33.42
2017-03-24T09:41:09.032Z,33.62
2017-03-24T09:42:18.144Z,33.86
2017-03-24T09:43:26.907Z,34.08
2017-03-24T09:44:35.686Z,34.27
2017-03-24T09:45:44.409Z,34.43
2017-03-24T09:46:53.147Z,34.66
2017-03-24T09:48:01.871Z,34.9
2017-03-24T09:49:10.613Z,35.04
2017-03-24T09:50:19.677Z,35.04
2017-03-24T09:51:28.450Z,35.15
2017-03-24T09:52:37.211Z,35.29
2017-03-24T09:53:45.975Z,35.44
2017-03-24T09:54:54.739Z,35.39
2017-03-24T09:56:03.504Z,35.55
2017-03-24T09:57:12.238Z,35.55
2017-03-24T09:58:21.026Z,35.56
2017-03-24T09:59:29.797Z,35.56
2017-03-24T10:00:38.563Z,35.66
2017-03-24T10:01:47.295Z,35.78
2017-03-24T10:02:56.025Z,35.83
2017-03-24T10:04:04.787Z,35.79
2017-03-24T10:05:13.554Z,35.8
2017-03-24T10:06:22.326Z,35.63
2017-03-24T10:07:31.090Z,35.63
2017-03-24T10:08:39.857Z,35.7
2017-03-24T10:09:48.628Z,35.79
2017-03-24T10:10:57.396Z,35.88
2017-03-24T10:12:06.465Z,36.05
2017-03-24T10:13:16.037Z,35.89
2017-03-24T10:14:24.770Z,35.76
2017-03-24T10:15:33.535Z,35.58
2017-03-24T10:16:42.310Z,35.51
2017-03-24T10:17:51.066Z,35.52
2017-03-24T10:18:59.802Z,35.68
2017-03-24T10:20:08.559Z,35.93
2017-03-24T10:21:17.321Z,36.23
2017-03-24T10:22:26.087Z,36.4
2017-03-24T10:23:35.134Z,36.55
2017-03-24T10:24:43.896Z,36.65
2017-03-24T10:25:52.967Z,36.7
2017-03-24T10:27:01.734Z,36.64
2017-03-24T10:28:10.469Z,36.33
2017-03-24T10:29:19.540Z,35.9
2017-03-24T10:30:29.119Z,35.63
2017-03-24T10:31:38.756Z,35.6
2017-03-24T10:32:47.798Z,35.56
2017-03-24T10:33:56.828Z,35.6
2017-03-24T10:35:05.559Z,35.82
2017-03-24T10:36:14.324Z,35.9
2017-03-24T10:37:23.104Z,35.98
2017-03-24T10:38:32.483Z,36.18
2017-03-24T10:39:41.551Z,36.28
2017-03-24T10:40:50.883Z,36.47
2017-03-24T10:41:59.965Z,36.36
2017-03-24T10:43:08.738Z,36.23
2017-03-24T10:44:17.508Z,36.16
2017-03-24T10:45:26.272Z,35.98
2017-03-24T10:46:35.047Z,36.12
2017-03-24T10:47:43.808Z,35.89
2017-03-24T10:48:52.581Z,35.89
2017-03-24T10:50:01.339Z,35.92
2017-03-24T10:51:10.101Z,36.14
2017-03-24T10:52:18.861Z,36.28
2017-03-24T10:53:27.629Z,36.46
2017-03-24T10:54:36.396Z,36.46
2017-03-24T10:55:45.172Z,36.49
2017-03-24T10:56:53.946Z,36.64
2017-03-24T10:58:02.972Z,36.65
2017-03-24T10:59:11.775Z,36.64
2017-03-24T11:00:20.823Z,36.57
2017-03-24T11:01:29.799Z,36.62
2017-03-24T11:02:38.571Z,36.72
2017-03-24T11:03:47.596Z,36.74
2017-03-24T11:04:56.334Z,36.62
2017-03-24T11:06:05.361Z,36.57
2017-03-24T11:07:14.498Z,36.45
2017-03-24T11:08:23.260Z,36.21
2017-03-24T11:09:32.031Z,36.14
2017-03-24T11:10:40.809Z,36.3
2017-03-24T11:11:49.541Z,36.59
2017-03-24T11:12:58.609Z,36.93
2017-03-24T11:14:07.676Z,37.2
2017-03-24T11:15:16.639Z,37.3
2017-03-24T11:16:25.406Z,37.35
2017-03-24T11:17:34.132Z,37.48
2017-03-24T11:18:42.870Z,37.42
2017-03-24T11:19:51.643Z,37.18
2017-03-24T11:21:00.402Z,37.15
2017-03-24T11:22:09.129Z,36.98
2017-03-24T11:23:17.868Z,37.01
2017-03-24T11:24:27.142Z,37.02
2017-03-24T11:25:35.907Z,37.15
2017-03-24T11:26:44.669Z,37.2
2017-03-24T11:27:53.438Z,37.42
2017-03-24T11:29:02.209Z,37.63
2017-03-24T11:30:10.969Z,37.77
2017-03-24T11:31:19.694Z,37.99
2017-03-24T11:32:28.429Z,38.02
2017-03-24T11:33:37.504Z,38.01
2017-03-24T11:34:46.483Z,37.92
2017-03-24T11:35:55.207Z,37.89
2017-03-24T11:37:04.252Z,37.92
2017-03-24T11:38:13.023Z,37.93
2017-03-24T11:39:21.798Z,37.92
2017-03-24T11:40:30.531Z,37.94
2017-03-24T11:41:39.266Z,38.12
2017-03-24T11:42:48.334Z,38.28
2017-03-24T11:43:57.102Z,38.45
2017-03-24T11:45:06.025Z,38.57
2017-03-24T11:46:14.795Z,38.71
2017-03-24T11:47:23.559Z,38.86
2017-03-24T11:48:32.284Z,39.03
2017-03-24T11:49:41.015Z,39.24
2017-03-24T11:50:50.064Z,39.34
2017-03-24T11:51:58.832Z,39.43
2017-03-24T11:53:07.605Z,39.44
2017-03-24T11:54:16.368Z,39.52
2017-03-24T11:55:25.132Z,39.68
2017-03-24T11:56:34.205Z,39.78
2017-03-24T11:57:43.289Z,39.87
2017-03-24T11:58:52.353Z,39.92
2017-03-24T12:00:01.093Z,39.75
2017-03-24T12:01:09.870Z,39.58
2017-03-24T12:02:18.635Z,39.34
2017-03-24T12:03:27.406Z,39.03
2017-03-24T12:04:36.174Z,38.55
2017-03-24T12:05:45.250Z,38.2
2017-03-24T12:06:54.631Z,37.7
2017-03-24T12:08:03.350Z,37.23
2017-03-24T12:09:12.050Z,36.77
2017-03-24T12:10:20.758Z,36.27
2017-03-24T12:11:29.803Z,36.02
2017-03-24T12:12:38.616Z,35.67
2017-03-24T12:13:47.586Z,35.23
2017-03-24T12:14:56.366Z,34.97
2017-03-24T12:16:05.102Z,34.66
2017-03-24T12:17:14.167Z,34.42
2017-03-24T12:18:23.201Z,34.02
2017-03-24T12:19:31.935Z,33.89
2017-03-24T12:20:40.716Z,33.67
2017-03-24T12:21:49.787Z,33.4
2017-03-24T12:22:58.813Z,33.3
2017-03-24T12:24:07.549Z,33.02
2017-03-24T12:25:16.612Z,32.78
2017-03-24T12:26:25.377Z,32.56
2017-03-24T12:27:34.138Z,32.49
2017-03-24T12:28:42.898Z,32.34
2017-03-24T12:29:52.274Z,32.21
2017-03-24T12:31:01.035Z,32.01
2017-03-24T12:32:09.803Z,31.81
2017-03-24T12:33:18.572Z,31.71
2017-03-24T12:34:27.328Z,31.55
2017-03-24T12:35:36.087Z,31.42
2017-03-24T12:36:44.854Z,31.34
2017-03-24T12:37:53.577Z,31.12
2017-03-24T12:39:02.572Z,31.1
2017-03-24T12:40:11.312Z,30.99
2017-03-24T12:41:20.125Z,30.78
2017-03-24T12:42:28.879Z,30.73
2017-03-24T12:43:37.921Z,30.68
2017-03-24T12:44:46.630Z,30.57
2017-03-24T12:45:55.390Z,30.44
2017-03-24T12:47:04.173Z,30.34
2017-03-24T12:48:13.236Z,30.25
2017-03-24T12:49:22.281Z,30.1
2017-03-24T12:50:31.285Z,30.02
2017-03-24T12:51:40.045Z,29.88
2017-03-24T12:52:48.817Z,29.97
2017-03-24T12:53:57.890Z,29.86
2017-03-24T12:55:06.994Z,29.75
2017-03-24T12:56:16.210Z,29.73
2017-03-24T12:57:24.977Z,29.66
2017-03-24T12:58:33.736Z,29.61
2017-03-24T12:59:42.805Z,29.54
2017-03-24T13:00:51.872Z,29.42
2017-03-24T13:02:00.940Z,29.42
2017-03-24T13:03:09.698Z,29.41
2017-03-24T13:04:18.471Z,29.27
2017-03-24T13:05:27.241Z,29.22
2017-03-24T13:06:36.323Z,29.16
2017-03-24T13:07:45.557Z,29.12
2017-03-24T13:08:54.615Z,28.98
2017-03-24T13:10:03.389Z,29.05
2017-03-24T13:11:12.364Z,28.96
2017-03-24T13:12:21.131Z,28.96
2017-03-24T13:13:30.161Z,28.93
2017-03-24T13:14:38.896Z,28.85
2017-03-24T13:15:47.662Z,28.82
2017-03-24T13:16:56.708Z,28.74
2017-03-24T13:18:05.473Z,28.72
2017-03-24T13:19:14.248Z,28.69
2017-03-24T13:20:23.011Z,28.62
2017-03-24T13:21:32.085Z,28.52
2017-03-24T13:22:41.149Z,28.48
2017-03-24T13:23:49.916Z,28.49
2017-03-24T13:24:58.983Z,28.38
2017-03-24T13:26:07.754Z,28.39
2017-03-24T13:27:16.819Z,28.37
2017-03-24T13:28:25.592Z,28.3
2017-03-24T13:29:34.958Z,28.29
2017-03-24T13:30:44.027Z,28.14
2017-03-24T13:31:53.413Z,28.19
2017-03-24T13:33:02.184Z,28.11
2017-03-24T13:34:11.258Z,28.1
2017-03-24T13:35:20.034Z,28.02
2017-03-24T13:36:28.803Z,28.01
2017-03-24T13:37:37.571Z,27.93
2017-03-24T13:38:46.337Z,28.02
2017-03-24T13:39:55.096Z,27.93
2017-03-24T13:41:04.174Z,27.95
2017-03-24T13:42:12.939Z,27.93
2017-03-24T13:43:21.706Z,27.86
2017-03-24T13:44:30.781Z,27.8
2017-03-24T13:45:39.853Z,27.78
2017-03-24T13:46:48.618Z,27.78
2017-03-24T13:47:57.383Z,27.8
2017-03-24T13:49:06.104Z,27.73
2017-03-24T13:50:14.831Z,27.75
2017-03-24T13:51:23.572Z,27.71
2017-03-24T13:52:32.341Z,27.67
2017-03-24T13:53:41.112Z,27.65
2017-03-24T13:54:50.179Z,27.55
2017-03-24T13:55:58.951Z,27.59
2017-03-24T13:57:07.730Z,27.63
2017-03-24T13:58:16.497Z,27.65
2017-03-24T13:59:25.262Z,27.54
2017-03-24T14:00:34.041Z,27.49
2017-03-24T14:01:43.714Z,27.49
2017-03-24T14:02:52.479Z,27.58
2017-03-24T14:04:01.254Z,27.51
2017-03-24T14:05:10.329Z,27.49
2017-03-24T14:06:19.107Z,27.44
2017-03-24T14:07:27.870Z,27.36
2017-03-24T14:08:36.657Z,27.33
2017-03-24T14:09:45.722Z,27.39
2017-03-24T14:10:54.486Z,27.29
2017-03-24T14:12:03.547Z,27.32
2017-03-24T14:13:12.303Z,27.32
2017-03-24T14:14:21.280Z,27.22
2017-03-24T14:15:30.351Z,27.18
2017-03-24T14:16:39.106Z,27.22
2017-03-24T14:17:47.804Z,27.14
2017-03-24T14:18:56.848Z,27.15
2017-03-24T14:20:05.918Z,27.05
2017-03-24T14:21:14.687Z,27.08
2017-03-24T14:22:23.741Z,27.11
2017-03-24T14:23:32.812Z,27.14
2017-03-24T14:24:41.530Z,27.08
2017-03-24T14:25:50.474Z,27.1
2017-03-24T14:26:59.273Z,27.05
2017-03-24T14:28:08.354Z,26.97
2017-03-24T14:29:17.109Z,27.05
2017-03-24T14:30:26.108Z,26.99
2017-03-24T14:31:35.315Z,26.99
2017-03-24T14:32:44.355Z,26.9
2017-03-24T14:33:53.119Z,26.9
2017-03-24T14:35:01.878Z,26.9
2017-03-24T14:36:10.648Z,26.89
2017-03-24T14:37:20.028Z,26.81
2017-03-24T14:38:28.806Z,26.85
2017-03-24T14:39:38.181Z,26.83
2017-03-24T14:40:46.950Z,26.89
2017-03-24T14:41:55.916Z,26.84
2017-03-24T14:43:04.984Z,26.8
2017-03-24T14:44:14.393Z,26.74
2017-03-24T14:45:23.159Z,26.8
2017-03-24T14:46:31.885Z,26.74
2017-03-24T14:47:40.924Z,26.68
2017-03-24T14:48:49.945Z,26.73
2017-03-24T14:49:58.683Z,26.68
2017-03-24T14:51:07.463Z,26.6
2017-03-24T14:52:16.436Z,26.63
2017-03-24T14:53:25.171Z,26.65
2017-03-24T14:54:33.908Z,26.65